createdAt,value
2023-05-15T00:03:44.794Z,90.10
2023-05-15T00:08:44.621Z,90.20
2023-05-15T00:13:44.556Z,89.90
2023-05-15T00:18:44.520Z,89.69
2023-05-15T00:23:44.413Z,89.94
2023-05-15T00:28:44.347Z,90.04
2023-05-15T00:33:44.279Z,89.67
2023-05-15T00:38:44.222Z,90.49
2023-05-15T00:43:44.157Z,90.90
2023-05-15T00:48:44.084Z,91.52
2023-05-15T00:53:44.070Z,91.93
2023-05-15T00:58:43.962Z,91.62
2023-05-15T01:03:43.909Z,91.77
2023-05-15T01:08:43.833Z,91.56
2023-05-15T01:13:43.775Z,91.30
2023-05-15T01:18:43.844Z,91.50
2023-05-15T01:23:43.628Z,91.91
2023-05-15T01:28:43.628Z,92.42
2023-05-15T01:33:43.503Z,92.32
2023-05-15T01:38:43.446Z,92.93
2023-05-15T01:43:43.374Z,93.65
2023-05-15T01:48:43.298Z,94.26
2023-05-15T01:53:43.242Z,94.26
2023-05-15T01:58:43.163Z,94.26
2023-05-15T02:03:43.144Z,94.06
2023-05-15T02:08:43.055Z,93.65
2023-05-15T02:13:42.972Z,93.59
2023-05-15T02:18:42.922Z,93.70
2023-05-15T02:23:42.842Z,94.00
2023-05-15T02:28:42.775Z,93.80
2023-05-15T02:33:42.731Z,93.70
2023-05-15T02:38:42.638Z,93.70
2023-05-15T02:43:42.582Z,94.00
2023-05-15T02:48:42.516Z,94.41
2023-05-15T02:53:42.462Z,94.31
2023-05-15T02:58:42.385Z,94.36
2023-05-15T03:03:42.315Z,94.46
2023-05-15T03:08:42.236Z,94.56
2023-05-15T03:13:42.182Z,94.66
2023-05-15T03:18:42.171Z,94.76
2023-05-15T03:23:42.046Z,95.07
2023-05-15T03:28:42.432Z,94.97
2023-05-15T03:33:41.931Z,94.36
2023-05-15T03:38:41.836Z,93.95
2023-05-15T03:43:41.784Z,93.95
2023-05-15T03:48:41.718Z,94.36
2023-05-15T03:53:41.662Z,94.36
2023-05-15T03:58:41.590Z,94.56
2023-05-15T04:03:41.526Z,94.46
2023-05-15T04:08:41.646Z,94.66
2023-05-15T04:13:41.398Z,94.72
2023-05-15T04:18:41.365Z,94.26
2023-05-15T04:23:41.278Z,93.65
2023-05-15T04:28:49.378Z,93.20
2023-05-15T04:33:42.155Z,93.15
2023-05-15T04:38:41.056Z,92.60
2023-05-15T04:43:41.387Z,91.74
2023-05-15T04:48:40.960Z,90.63
2023-05-15T04:53:40.873Z,88.06
2023-05-15T04:58:40.796Z,87.65
2023-05-15T05:03:40.777Z,87.50
2023-05-15T05:08:40.665Z,86.99
2023-05-15T05:13:40.606Z,86.30
2023-05-15T05:18:40.565Z,83.84
2023-05-15T05:23:40.477Z,83.64
2023-05-15T05:28:40.410Z,82.89
2023-05-15T05:33:40.353Z,81.73
2023-05-15T05:38:40.270Z,80.74
2023-05-15T05:43:40.226Z,80.56
2023-05-15T05:48:40.140Z,79.51
2023-05-15T05:53:40.083Z,79.30
2023-05-15T05:58:40.004Z,78.86
2023-05-15T06:03:40.030Z,77.50
2023-05-15T06:08:39.866Z,74.66
2023-05-15T06:13:39.813Z,73.72
2023-05-15T06:18:39.788Z,69.28
2023-05-15T06:23:39.711Z,66.13
2023-05-15T06:28:39.618Z,65.10
2023-05-15T06:33:39.569Z,67.20
2023-05-15T06:38:39.488Z,68.98
2023-05-15T06:43:39.428Z,68.71
2023-05-15T06:48:39.346Z,68.31
2023-05-15T06:53:39.295Z,68.21
2023-05-15T06:58:39.211Z,66.27
2023-05-15T07:03:39.164Z,64.53
2023-05-15T07:08:39.088Z,60.98
2023-05-15T07:13:39.043Z,58.39
2023-05-15T07:18:39.061Z,55.43
2023-05-15T07:23:38.903Z,53.43
2023-05-15T07:28:38.826Z,52.49
2023-05-15T07:33:38.759Z,49.90
2023-05-15T07:38:38.687Z,49.36
2023-05-15T07:43:38.632Z,49.46
2023-05-15T07:48:38.557Z,48.25
2023-05-15T07:53:38.496Z,48.42
2023-05-15T07:58:38.457Z,48.25
2023-05-15T08:03:38.505Z,48.71
2023-05-15T08:08:38.299Z,50.52
2023-05-15T08:13:38.246Z,52.56
2023-05-15T08:18:38.221Z,52.06
2023-05-15T08:23:38.112Z,53.21
2023-05-15T08:28:38.035Z,55.95
2023-05-15T08:33:37.981Z,56.47
2023-05-15T08:38:37.898Z,54.83
2023-05-15T08:43:37.848Z,57.18
2023-05-15T08:48:37.988Z,52.36
2023-05-15T08:53:37.717Z,47.13
2023-05-15T08:58:37.790Z,46.76
2023-05-15T09:03:37.744Z,42.79
2023-05-15T09:08:37.712Z,44.88
2023-05-15T09:13:37.756Z,46.13
2023-05-15T09:18:37.816Z,48.21
2023-05-15T09:23:37.835Z,44.37
2023-05-15T09:28:37.807Z,45.26
2023-05-15T09:33:37.216Z,43.42
2023-05-15T09:38:37.134Z,43.51
2023-05-15T09:43:37.089Z,43.24
2023-05-15T09:48:37.111Z,44.81
2023-05-15T09:53:36.966Z,46.56
2023-05-15T09:58:36.894Z,47.63
2023-05-15T10:03:36.838Z,47.97
2023-05-15T10:08:36.774Z,47.70
2023-05-15T10:13:36.706Z,46.61
2023-05-15T10:18:36.656Z,43.52
2023-05-15T10:23:36.594Z,40.91
2023-05-15T10:28:36.504Z,40.86
2023-05-15T10:33:36.437Z,41.53
2023-05-15T10:38:36.378Z,43.38
2023-05-15T10:43:36.318Z,41.35
2023-05-15T10:48:36.232Z,39.72
2023-05-15T10:53:36.176Z,40.04
2023-05-15T10:58:36.101Z,40.42
2023-05-15T11:03:48.171Z,43.16
2023-05-15T11:08:37.220Z,44.58
2023-05-15T11:13:35.935Z,44.21
2023-05-15T11:18:35.890Z,43.45
2023-05-15T11:23:35.807Z,42.46
2023-05-15T11:28:35.736Z,43.16
2023-05-15T11:33:35.677Z,41.75
2023-05-15T11:38:35.602Z,42.37
2023-05-15T11:43:35.534Z,43.79
2023-05-15T11:48:35.512Z,42.76
2023-05-15T11:53:35.435Z,45.09
2023-05-15T11:58:35.358Z,45.04
2023-05-15T12:03:35.469Z,46.66
2023-05-15T12:08:35.224Z,46.45
2023-05-15T12:13:35.186Z,45.68
2023-05-15T12:18:35.125Z,47.03
2023-05-15T12:23:35.032Z,45.49
2023-05-15T12:28:34.965Z,44.28
2023-05-15T12:33:34.899Z,44.37
2023-05-15T12:38:34.854Z,45.17
2023-05-15T12:43:34.785Z,44.50
2023-05-15T12:48:34.698Z,44.62
2023-05-15T12:53:34.664Z,45.42
2023-05-15T12:58:34.562Z,44.92
2023-05-15T13:03:34.636Z,44.50
2023-05-15T13:08:34.434Z,45.39
2023-05-15T13:13:34.379Z,45.61
2023-05-15T13:18:34.336Z,45.52
2023-05-15T13:23:34.238Z,44.74
2023-05-15T13:28:34.174Z,44.84
2023-05-15T13:33:34.114Z,44.16
2023-05-15T13:38:34.039Z,43.68
2023-05-15T13:43:33.984Z,44.90
2023-05-15T13:48:33.954Z,49.94
2023-05-15T13:53:33.862Z,51.31
2023-05-15T13:58:33.847Z,51.04
2023-05-15T14:03:33.853Z,50.76
2023-05-15T14:08:33.647Z,51.64
2023-05-15T14:13:33.598Z,48.43
2023-05-15T14:18:33.577Z,49.01
2023-05-15T14:23:33.459Z,47.89
2023-05-15T14:28:33.403Z,49.76
2023-05-15T14:33:33.325Z,51.34
2023-05-15T14:38:33.254Z,51.94
2023-05-15T14:43:33.197Z,50.84
2023-05-15T14:48:33.131Z,51.56
2023-05-15T14:53:33.058Z,51.69
2023-05-15T14:58:33.001Z,50.31
2023-05-15T15:03:34.141Z,52.86
2023-05-15T15:08:32.879Z,55.09
2023-05-15T15:13:32.801Z,56.45
2023-05-15T15:18:32.790Z,56.81
2023-05-15T15:23:32.674Z,57.03
2023-05-15T15:28:32.601Z,58.77
2023-05-15T15:33:32.551Z,61.30
2023-05-15T15:38:32.468Z,61.30
2023-05-15T15:43:32.422Z,60.30
2023-05-15T15:48:32.397Z,58.89
2023-05-15T15:53:32.295Z,59.20
2023-05-15T15:58:32.457Z,59.70
2023-05-15T16:03:32.230Z,60.80
2023-05-15T16:08:32.068Z,60.91
2023-05-15T16:13:32.008Z,61.41
2023-05-15T16:18:31.996Z,60.60
2023-05-15T16:23:31.878Z,61.71
2023-05-15T16:28:31.816Z,62.62
2023-05-15T16:33:31.750Z,63.01
2023-05-15T16:38:31.671Z,62.51
2023-05-15T16:43:31.621Z,62.81
2023-05-15T16:48:31.545Z,63.12
2023-05-15T16:53:31.572Z,64.12
2023-05-15T16:58:31.398Z,65.03
2023-05-15T17:03:31.479Z,64.33
2023-05-15T17:08:31.276Z,64.75
2023-05-15T17:13:31.209Z,65.66
2023-05-15T17:18:31.170Z,66.90
2023-05-15T17:23:31.103Z,67.70
2023-05-15T17:28:30.988Z,67.81
2023-05-15T17:33:30.950Z,68.24
2023-05-15T17:38:30.855Z,68.68
2023-05-15T17:43:30.797Z,69.21
2023-05-15T17:48:30.725Z,70.42
2023-05-15T17:53:30.670Z,70.86
2023-05-15T17:58:30.604Z,71.90
2023-05-15T18:03:30.687Z,73.04
2023-05-15T18:08:30.479Z,73.15
2023-05-15T18:13:30.397Z,74.35
2023-05-15T18:18:30.408Z,74.46
2023-05-15T18:23:30.269Z,73.65
2023-05-15T18:28:30.240Z,72.47
2023-05-15T18:33:30.164Z,71.66
2023-05-15T18:38:30.089Z,71.09
2023-05-15T18:43:30.036Z,70.69
2023-05-15T18:48:29.981Z,70.42
2023-05-15T18:53:29.894Z,69.41
2023-05-15T18:58:29.845Z,69.20
2023-05-15T19:03:29.819Z,68.50
2023-05-15T19:08:29.721Z,68.84
2023-05-15T19:13:29.625Z,69.34
2023-05-15T19:18:29.624Z,69.75
2023-05-15T19:23:29.503Z,69.64
2023-05-15T19:28:29.436Z,70.18
2023-05-15T19:33:29.364Z,70.69
2023-05-15T19:38:29.310Z,70.69
2023-05-15T19:43:29.227Z,71.33
2023-05-15T19:48:29.166Z,71.23
2023-05-15T19:53:29.092Z,71.16
2023-05-15T19:58:29.048Z,71.66
2023-05-15T20:03:29.036Z,72.30
2023-05-15T20:08:28.928Z,73.32
2023-05-15T20:13:28.844Z,74.57
2023-05-15T20:18:28.901Z,74.37
2023-05-15T20:23:28.699Z,74.26
2023-05-15T20:28:28.658Z,74.77
2023-05-15T20:33:28.665Z,76.12
2023-05-15T20:38:28.556Z,77.28
2023-05-15T20:43:28.458Z,77.68
2023-05-15T20:48:28.376Z,77.68
2023-05-15T20:53:28.310Z,77.38
2023-05-15T20:58:28.265Z,77.48
2023-05-15T21:03:28.223Z,77.72
2023-05-15T21:08:28.152Z,78.74
2023-05-15T21:13:28.081Z,79.48
2023-05-15T21:18:27.993Z,80.09
2023-05-15T21:23:27.933Z,80.19
2023-05-15T21:28:27.855Z,80.54
2023-05-15T21:33:27.784Z,81.39
2023-05-15T21:38:27.728Z,82.09
2023-05-15T21:43:27.658Z,82.95
2023-05-15T21:48:27.594Z,83.05
2023-05-15T21:53:27.537Z,83.25
2023-05-15T21:58:27.454Z,83.39
2023-05-15T22:03:27.486Z,83.70
2023-05-15T22:08:27.325Z,84.00
2023-05-15T22:13:27.273Z,84.00
2023-05-15T22:18:27.182Z,84.31
2023-05-15T22:23:27.125Z,84.55
2023-05-15T22:28:27.065Z,84.55
2023-05-15T22:33:26.994Z,84.86
2023-05-15T22:38:26.932Z,84.96
2023-05-15T22:43:26.858Z,85.10
2023-05-15T22:48:26.795Z,85.20
2023-05-15T22:53:26.726Z,85.51
2023-05-15T22:58:26.669Z,85.51
2023-05-15T23:03:26.662Z,85.85
2023-05-15T23:08:26.548Z,86.05
2023-05-15T23:13:26.469Z,86.30
2023-05-15T23:18:26.409Z,86.71
2023-05-15T23:23:26.342Z,86.95
2023-05-15T23:28:26.330Z,87.06
2023-05-15T23:33:26.210Z,86.95
2023-05-15T23:38:26.155Z,87.16
2023-05-15T23:43:26.083Z,87.30
2023-05-15T23:48:26.033Z,87.20
2023-05-15T23:53:25.975Z,87.10
2023-05-15T23:58:25.895Z,87.10
